Time;durP1;ratioP1;P1;durP2;ratioP2;P2;SDS_P1;SDS_P2;PMS_P1;PMS_P2;Temp;Humidity;BMP_temperature;BMP_pressure;BME280_temperature;BME280_humidity;BME280_pressure;Samples;Min_cycle;Max_cycle;Signal;HPM_P1;HPM_P2
2023/01/17 01:35:02;;;;;;;22.53;16.10;;;4.10;99.90;;;;;;5993041;23;20198;-85
2023/01/17 02:04:47;;;;;;;22.83;14.60;;;4.20;99.90;;;;;;5768294;24;21139;-85
2023/01/17 02:40:23;;;;;;;23.40;15.30;;;4.30;99.90;;;;;;5891599;23;20369;-83
2023/01/17 03:05:44;;;;;;;22.90;14.77;;;4.30;99.90;;;;;;5870255;23;20515;-83
2023/01/17 03:46:39;;;;;;;23.57;14.87;;;4.10;99.90;;;;;;6126546;23;20212;-84
2023/01/17 04:07:11;;;;;;;18.57;13.67;;;4.20;99.90;;;;;;6080516;23;20254;-83
2023/01/17 04:27:13;;;;;;;22.03;14.17;;;4.10;99.90;;;;;;5855234;23;20609;-84
2023/01/17 04:47:45;;;;;;;20.67;12.93;;;4.10;99.90;;;;;;5831887;24;20168;-84
2023/01/17 05:18:11;;;;;;;21.13;13.07;;;4.00;99.90;;;;;;5878283;23;20185;-84
2023/01/17 05:37:56;;;;;;;22.63;14.17;;;3.90;99.90;;;;;;5803118;24;20556;-85
2023/01/17 05:58:24;;;;;;;22.47;13.47;;;3.80;99.90;;;;;;5798213;24;20705;-84
2023/01/17 06:44:12;;;;;;;17.63;13.37;;;3.40;99.90;;;;;;5918204;24;20179;-86
2023/01/17 07:04:21;;;;;;;23.57;13.87;;;3.00;99.90;;;;;;5824450;24;20380;-87
2023/01/17 07:29:53;;;;;;;22.63;14.90;;;2.90;99.90;;;;;;5962589;23;20176;-85
2023/01/17 08:35:24;;;;;;;18.40;12.70;;;4.00;99.90;;;;;;5711183;24;20461;-83
2023/01/17 08:56:01;;;;;;;12.43;9.83;;;4.20;99.90;;;;;;5960447;23;20503;-83
2023/01/17 09:16:31;;;;;;;11.90;9.63;;;4.50;99.90;;;;;;5899665;23;20181;-83
2023/01/17 09:46:25;;;;;;;12.77;8.27;;;5.10;97.90;;;;;;5872580;23;20486;-83
2023/01/17 10:12:02;;;;;;;10.13;7.80;;;5.40;97.90;;;;;;5723488;24;21096;-81
2023/01/17 10:57:51;;;;;;;11.40;8.83;;;5.60;96.10;;;;;;5655208;24;20209;-82
2023/01/17 11:18:19;;;;;;;11.80;9.37;;;5.70;96.10;;;;;;5888334;23;20200;-81
2023/01/17 11:38:37;;;;;;;13.13;9.57;;;5.60;96.50;;;;;;5877926;23;20261;-84
2023/01/17 11:58:42;;;;;;;15.13;10.10;;;5.60;96.20;;;;;;5729011;24;20230;-83
2023/01/17 13:35:13;;;;;;;17.70;12.33;;;5.40;96.20;;;;;;5658233;24;20499;-84
2023/01/17 14:10:42;;;;;;;18.80;12.73;;;4.80;99.60;;;;;;5796312;23;20407;-79
2023/01/17 14:40:32;;;;;;;19.40;13.83;;;3.90;99.90;;;;;;5901711;23;20693;-83
2023/01/17 15:01:20;;;;;;;21.97;14.43;;;2.90;99.90;;;;;;5922213;23;20228;-84
2023/01/17 15:26:11;;;;;;;24.63;17.40;;;2.60;99.90;;;;;;5682472;24;20610;-81
2023/01/17 15:46:42;;;;;;;26.80;17.10;;;1.90;99.90;;;;;;5691607;24;20391;-84
2023/01/17 16:07:20;;;;;;;32.90;20.17;;;1.30;99.90;;;;;;5904136;23;20356;-84
2023/01/17 16:42:37;;;;;;;31.33;21.27;;;1.40;99.90;;;;;;5967138;23;20319;-83
2023/01/17 17:17:55;;;;;;;40.13;24.20;;;1.20;99.90;;;;;;5829125;24;20255;-84
2023/01/17 17:53:10;;;;;;;35.07;24.00;;;0.20;99.90;;;;;;5944700;23;20251;-85
2023/01/17 18:54:05;;;;;;;81.20;45.93;;;-0.70;99.90;;;;;;6050706;23;20620;-83
2023/01/17 19:14:48;;;;;;;74.33;42.17;;;-0.70;99.90;;;;;;5963091;23;20235;-84
2023/01/17 19:30:01;;;;;;;93.17;50.47;;;-0.60;99.90;;;;;;6155831;23;20320;-85
2023/01/17 20:05:39;;;;;;;110.20;57.43;;;-1.00;99.90;;;;;;6102562;23;20332;-83
2023/01/17 20:30:51;;;;;;;113.00;57.87;;;-0.90;99.90;;;;;;6126768;23;20201;-85
2023/01/17 21:01:19;;;;;;;112.93;58.60;;;-0.90;99.90;;;;;;5967327;23;20216;-84
2023/01/17 22:32:32;;;;;;;111.57;59.73;;;-0.40;99.90;;;;;;5883917;23;20199;-84
2023/01/17 23:02:57;;;;;;;123.40;63.87;;;-0.40;99.90;;;;;;5893581;23;20350;-85
2023/01/17 23:32:53;;;;;;;102.60;51.63;;;0.00;99.90;;;;;;5953107;23;20628;-83
2023/01/17 23:53:14;;;;;;;115.03;60.70;;;0.10;99.90;;;;;;5856627;24;20963;-83
